Weather at Tindouf Airport

Public forecast

Using degrees Celsius for public forecast. Weather courtesy of forecast.io.

Current aviation weather report (METAR) for Tindouf Airport

2023/01/28 12:00 (retrieved 49 minutes ago)

DAOF 281200Z 36004KT CAVOK 16/M02 Q1015

Closest aviation forecast (TAF) to Tindouf Airport

Closest forecast is Hassan I Airport, 271.6 nm (503.0 km) W.

2023/01/28 12:18 (retrieved 31 minutes ago)

TAF GMML 281100Z 2812/2918 02017KT 3000 -RA BKN030 BECMG 2813/2815 6000 NSW